sensor_id;sensor_type;location;lat;lon;timestamp;P1;durP1;ratioP1;P2;durP2;ratioP2
82940;SDS011;72715;48.396;-4.472;2024-02-21T00:01:24;15.82;;;2.65;;
82940;SDS011;72715;48.396;-4.472;2024-02-21T00:03:49;12.82;;;3.63;;
82940;SDS011;72715;48.396;-4.472;2024-02-21T00:06:15;14.82;;;2.75;;
82940;SDS011;72715;48.396;-4.472;2024-02-21T00:08:40;7.18;;;2.17;;
82940;SDS011;72715;48.396;-4.472;2024-02-21T00:11:06;11.30;;;2.47;;
82940;SDS011;72715;48.396;-4.472;2024-02-21T00:13:31;10.32;;;3.80;;
82940;SDS011;72715;48.396;-4.472;2024-02-21T00:15:57;15.63;;;2.97;;
82940;SDS011;72715;48.396;-4.472;2024-02-21T00:18:22;6.35;;;3.45;;
82940;SDS011;72715;48.396;-4.472;2024-02-21T00:20:47;33.55;;;3.97;;
82940;SDS011;72715;48.396;-4.472;2024-02-21T00:23:13;7.75;;;1.67;;
82940;SDS011;72715;48.396;-4.472;2024-02-21T00:25:38;13.40;;;3.20;;
82940;SDS011;72715;48.396;-4.472;2024-02-21T00:28:04;6.40;;;3.03;;
82940;SDS011;72715;48.396;-4.472;2024-02-21T00:30:30;6.57;;;1.85;;
82940;SDS011;72715;48.396;-4.472;2024-02-21T00:32:56;11.25;;;2.28;;
82940;SDS011;72715;48.396;-4.472;2024-02-21T00:35:21;8.75;;;3.10;;
82940;SDS011;72715;48.396;-4.472;2024-02-21T00:37:46;14.98;;;2.72;;
82940;SDS011;72715;48.396;-4.472;2024-02-21T00:40:12;5.78;;;2.83;;
82940;SDS011;72715;48.396;-4.472;2024-02-21T00:42:37;7.10;;;2.35;;
82940;SDS011;72715;48.396;-4.472;2024-02-21T00:45:03;6.72;;;2.30;;
82940;SDS011;72715;48.396;-4.472;2024-02-21T00:47:28;6.60;;;3.05;;
82940;SDS011;72715;48.396;-4.472;2024-02-21T00:49:54;11.88;;;4.45;;
82940;SDS011;72715;48.396;-4.472;2024-02-21T00:52:20;25.92;;;4.63;;
82940;SDS011;72715;48.396;-4.472;2024-02-21T00:54:45;9.82;;;3.20;;
82940;SDS011;72715;48.396;-4.472;2024-02-21T00:57:11;11.95;;;2.83;;
82940;SDS011;72715;48.396;-4.472;2024-02-21T00:59:37;9.05;;;3.25;;
82940;SDS011;72715;48.396;-4.472;2024-02-21T01:02:02;7.45;;;2.40;;
82940;SDS011;72715;48.396;-4.472;2024-02-21T01:04:27;14.07;;;4.05;;
82940;SDS011;72715;48.396;-4.472;2024-02-21T01:06:53;5.70;;;2.83;;
82940;SDS011;72715;48.396;-4.472;2024-02-21T01:09:18;8.18;;;2.05;;
82940;SDS011;72715;48.396;-4.472;2024-02-21T01:11:43;4.75;;;2.08;;
82940;SDS011;72715;48.396;-4.472;2024-02-21T01:14:09;12.88;;;4.03;;
82940;SDS011;72715;48.396;-4.472;2024-02-21T01:16:34;15.00;;;3.30;;
82940;SDS011;72715;48.396;-4.472;2024-02-21T01:18:59;12.25;;;3.30;;
82940;SDS011;72715;48.396;-4.472;2024-02-21T01:21:25;8.38;;;2.63;;
82940;SDS011;72715;48.396;-4.472;2024-02-21T01:23:50;7.28;;;3.42;;
82940;SDS011;72715;48.396;-4.472;2024-02-21T01:26:15;12.70;;;4.90;;
82940;SDS011;72715;48.396;-4.472;2024-02-21T01:28:41;7.97;;;2.90;;
82940;SDS011;72715;48.396;-4.472;2024-02-21T01:31:07;8.68;;;2.63;;
82940;SDS011;72715;48.396;-4.472;2024-02-21T01:33:32;18.35;;;4.40;;
82940;SDS011;72715;48.396;-4.472;2024-02-21T01:36:02;22.27;;;5.03;;
82940;SDS011;72715;48.396;-4.472;2024-02-21T01:38:28;6.78;;;2.47;;
82940;SDS011;72715;48.396;-4.472;2024-02-21T01:40:54;7.60;;;2.97;;
82940;SDS011;72715;48.396;-4.472;2024-02-21T01:43:20;10.30;;;2.55;;
82940;SDS011;72715;48.396;-4.472;2024-02-21T01:45:46;8.80;;;2.88;;
82940;SDS011;72715;48.396;-4.472;2024-02-21T01:48:17;5.93;;;2.05;;
82940;SDS011;72715;48.396;-4.472;2024-02-21T01:50:44;6.05;;;2.40;;
82940;SDS011;72715;48.396;-4.472;2024-02-21T01:53:09;12.85;;;3.10;;
82940;SDS011;72715;48.396;-4.472;2024-02-21T01:55:35;2.55;;;2.00;;
82940;SDS011;72715;48.396;-4.472;2024-02-21T01:58:01;8.80;;;3.42;;
82940;SDS011;72715;48.396;-4.472;2024-02-21T02:00:27;10.20;;;2.42;;
82940;SDS011;72715;48.396;-4.472;2024-02-21T02:02:52;13.77;;;3.33;;
82940;SDS011;72715;48.396;-4.472;2024-02-21T02:05:18;10.88;;;3.33;;
82940;SDS011;72715;48.396;-4.472;2024-02-21T02:07:46;14.75;;;3.08;;
82940;SDS011;72715;48.396;-4.472;2024-02-21T02:10:11;10.65;;;3.10;;
82940;SDS011;72715;48.396;-4.472;2024-02-21T02:12:37;45.65;;;4.97;;
82940;SDS011;72715;48.396;-4.472;2024-02-21T02:15:02;16.98;;;4.15;;
82940;SDS011;72715;48.396;-4.472;2024-02-21T02:17:31;12.70;;;2.95;;
82940;SDS011;72715;48.396;-4.472;2024-02-21T02:19:57;8.63;;;2.88;;
82940;SDS011;72715;48.396;-4.472;2024-02-21T02:22:23;10.27;;;3.25;;
82940;SDS011;72715;48.396;-4.472;2024-02-21T02:24:50;7.13;;;2.53;;
82940;SDS011;72715;48.396;-4.472;2024-02-21T02:27:16;7.10;;;2.90;;
82940;SDS011;72715;48.396;-4.472;2024-02-21T02:29:41;14.40;;;4.55;;
82940;SDS011;72715;48.396;-4.472;2024-02-21T02:32:06;12.05;;;3.15;;
82940;SDS011;72715;48.396;-4.472;2024-02-21T02:34:32;15.57;;;4.13;;
82940;SDS011;72715;48.396;-4.472;2024-02-21T02:36:57;19.90;;;4.35;;
82940;SDS011;72715;48.396;-4.472;2024-02-21T02:39:22;18.20;;;3.80;;
82940;SDS011;72715;48.396;-4.472;2024-02-21T02:41:48;17.20;;;3.13;;
82940;SDS011;72715;48.396;-4.472;2024-02-21T02:44:13;7.65;;;2.47;;
82940;SDS011;72715;48.396;-4.472;2024-02-21T02:46:41;13.23;;;2.88;;
82940;SDS011;72715;48.396;-4.472;2024-02-21T02:49:07;10.45;;;4.18;;
82940;SDS011;72715;48.396;-4.472;2024-02-21T02:51:32;13.35;;;4.47;;
82940;SDS011;72715;48.396;-4.472;2024-02-21T02:53:58;16.48;;;3.90;;
82940;SDS011;72715;48.396;-4.472;2024-02-21T02:56:23;10.10;;;2.67;;
82940;SDS011;72715;48.396;-4.472;2024-02-21T02:58:48;29.70;;;4.95;;
82940;SDS011;72715;48.396;-4.472;2024-02-21T03:01:14;9.38;;;3.28;;
82940;SDS011;72715;48.396;-4.472;2024-02-21T03:03:39;21.13;;;4.90;;
82940;SDS011;72715;48.396;-4.472;2024-02-21T03:06:05;11.77;;;3.28;;
82940;SDS011;72715;48.396;-4.472;2024-02-21T03:08:30;13.75;;;4.90;;
82940;SDS011;72715;48.396;-4.472;2024-02-21T03:10:57;11.25;;;4.10;;
82940;SDS011;72715;48.396;-4.472;2024-02-21T03:13:23;15.95;;;2.88;;
82940;SDS011;72715;48.396;-4.472;2024-02-21T03:15:48;17.33;;;4.68;;
82940;SDS011;72715;48.396;-4.472;2024-02-21T03:18:13;13.45;;;4.20;;
82940;SDS011;72715;48.396;-4.472;2024-02-21T03:20:39;10.23;;;2.47;;
82940;SDS011;72715;48.396;-4.472;2024-02-21T03:23:04;31.40;;;5.32;;
82940;SDS011;72715;48.396;-4.472;2024-02-21T03:25:30;7.65;;;1.88;;
82940;SDS011;72715;48.396;-4.472;2024-02-21T03:27:55;9.48;;;3.85;;
82940;SDS011;72715;48.396;-4.472;2024-02-21T03:30:20;17.63;;;3.95;;
82940;SDS011;72715;48.396;-4.472;2024-02-21T03:32:46;12.40;;;3.60;;
82940;SDS011;72715;48.396;-4.472;2024-02-21T03:35:11;16.35;;;4.05;;
82940;SDS011;72715;48.396;-4.472;2024-02-21T03:37:36;3.28;;;2.47;;
82940;SDS011;72715;48.396;-4.472;2024-02-21T03:40:02;15.75;;;4.28;;
82940;SDS011;72715;48.396;-4.472;2024-02-21T03:42:27;12.77;;;3.75;;
82940;SDS011;72715;48.396;-4.472;2024-02-21T03:44:55;10.43;;;2.90;;
82940;SDS011;72715;48.396;-4.472;2024-02-21T03:47:20;17.10;;;3.55;;
82940;SDS011;72715;48.396;-4.472;2024-02-21T03:49:46;6.82;;;2.63;;
82940;SDS011;72715;48.396;-4.472;2024-02-21T03:52:11;17.92;;;3.15;;
82940;SDS011;72715;48.396;-4.472;2024-02-21T03:54:37;13.38;;;3.45;;
82940;SDS011;72715;48.396;-4.472;2024-02-21T03:57:02;10.23;;;3.17;;
82940;SDS011;72715;48.396;-4.472;2024-02-21T03:59:29;43.38;;;6.53;;
82940;SDS011;72715;48.396;-4.472;2024-02-21T04:01:55;9.88;;;3.70;;
82940;SDS011;72715;48.396;-4.472;2024-02-21T04:04:21;10.32;;;3.85;;
82940;SDS011;72715;48.396;-4.472;2024-02-21T04:06:47;25.75;;;4.32;;
82940;SDS011;72715;48.396;-4.472;2024-02-21T04:09:13;18.42;;;5.60;;
82940;SDS011;72715;48.396;-4.472;2024-02-21T04:11:38;20.27;;;4.22;;
82940;SDS011;72715;48.396;-4.472;2024-02-21T04:14:04;16.65;;;3.75;;
82940;SDS011;72715;48.396;-4.472;2024-02-21T04:16:29;14.77;;;3.63;;
82940;SDS011;72715;48.396;-4.472;2024-02-21T04:18:54;16.50;;;4.15;;
82940;SDS011;72715;48.396;-4.472;2024-02-21T04:21:19;38.13;;;6.78;;
82940;SDS011;72715;48.396;-4.472;2024-02-21T04:23:45;34.90;;;7.20;;
82940;SDS011;72715;48.396;-4.472;2024-02-21T04:26:10;20.88;;;4.50;;
82940;SDS011;72715;48.396;-4.472;2024-02-21T04:28:35;30.98;;;6.40;;
82940;SDS011;72715;48.396;-4.472;2024-02-21T04:31:01;29.17;;;4.82;;
82940;SDS011;72715;48.396;-4.472;2024-02-21T04:33:26;27.77;;;6.30;;
82940;SDS011;72715;48.396;-4.472;2024-02-21T04:35:51;13.50;;;4.63;;
82940;SDS011;72715;48.396;-4.472;2024-02-21T04:38:19;14.43;;;4.20;;
82940;SDS011;72715;48.396;-4.472;2024-02-21T04:40:45;24.33;;;4.65;;
82940;SDS011;72715;48.396;-4.472;2024-02-21T04:43:10;30.25;;;6.68;;
82940;SDS011;72715;48.396;-4.472;2024-02-21T04:45:35;37.38;;;5.72;;
82940;SDS011;72715;48.396;-4.472;2024-02-21T04:48:01;26.08;;;4.85;;
82940;SDS011;72715;48.396;-4.472;2024-02-21T04:50:26;27.13;;;6.80;;
82940;SDS011;72715;48.396;-4.472;2024-02-21T04:52:52;23.98;;;6.40;;
82940;SDS011;72715;48.396;-4.472;2024-02-21T04:55:17;20.38;;;4.85;;
82940;SDS011;72715;48.396;-4.472;2024-02-21T04:57:43;18.13;;;3.83;;
82940;SDS011;72715;48.396;-4.472;2024-02-21T05:00:08;37.30;;;7.53;;
82940;SDS011;72715;48.396;-4.472;2024-02-21T05:02:34;20.05;;;5.85;;
82940;SDS011;72715;48.396;-4.472;2024-02-21T05:04:59;11.32;;;4.47;;
82940;SDS011;72715;48.396;-4.472;2024-02-21T05:07:25;30.90;;;5.47;;
82940;SDS011;72715;48.396;-4.472;2024-02-21T05:09:50;34.45;;;7.05;;
82940;SDS011;72715;48.396;-4.472;2024-02-21T05:12:16;11.60;;;4.35;;
82940;SDS011;72715;48.396;-4.472;2024-02-21T05:14:41;34.08;;;8.05;;
82940;SDS011;72715;48.396;-4.472;2024-02-21T05:17:07;22.50;;;4.65;;
82940;SDS011;72715;48.396;-4.472;2024-02-21T05:19:32;16.98;;;6.10;;
82940;SDS011;72715;48.396;-4.472;2024-02-21T05:21:58;27.00;;;5.97;;
82940;SDS011;72715;48.396;-4.472;2024-02-21T05:24:23;21.00;;;5.97;;
82940;SDS011;72715;48.396;-4.472;2024-02-21T05:26:49;16.85;;;5.07;;
82940;SDS011;72715;48.396;-4.472;2024-02-21T05:29:14;24.67;;;6.40;;
82940;SDS011;72715;48.396;-4.472;2024-02-21T05:34:18;8.27;;;3.42;;
82940;SDS011;72715;48.396;-4.472;2024-02-21T05:36:43;16.38;;;4.10;;
82940;SDS011;72715;48.396;-4.472;2024-02-21T05:39:09;18.83;;;4.80;;
82940;SDS011;72715;48.396;-4.472;2024-02-21T05:41:34;17.13;;;4.63;;
82940;SDS011;72715;48.396;-4.472;2024-02-21T05:44:00;23.17;;;7.55;;
82940;SDS011;72715;48.396;-4.472;2024-02-21T05:46:25;30.27;;;6.07;;
82940;SDS011;72715;48.396;-4.472;2024-02-21T05:48:50;24.83;;;4.60;;
82940;SDS011;72715;48.396;-4.472;2024-02-21T05:51:16;25.58;;;4.70;;
82940;SDS011;72715;48.396;-4.472;2024-02-21T05:53:41;26.90;;;6.30;;
82940;SDS011;72715;48.396;-4.472;2024-02-21T05:56:13;14.15;;;3.92;;
82940;SDS011;72715;48.396;-4.472;2024-02-21T06:01:04;20.52;;;5.53;;
82940;SDS011;72715;48.396;-4.472;2024-02-21T06:03:31;23.77;;;5.50;;
82940;SDS011;72715;48.396;-4.472;2024-02-21T06:05:57;17.00;;;3.40;;
82940;SDS011;72715;48.396;-4.472;2024-02-21T06:08:23;21.88;;;5.53;;
82940;SDS011;72715;48.396;-4.472;2024-02-21T06:10:48;16.42;;;4.28;;
82940;SDS011;72715;48.396;-4.472;2024-02-21T06:13:14;13.07;;;4.13;;
82940;SDS011;72715;48.396;-4.472;2024-02-21T06:15:39;18.05;;;3.10;;
82940;SDS011;72715;48.396;-4.472;2024-02-21T06:18:05;16.83;;;5.95;;
82940;SDS011;72715;48.396;-4.472;2024-02-21T06:20:30;15.55;;;5.30;;
82940;SDS011;72715;48.396;-4.472;2024-02-21T06:22:55;31.48;;;7.40;;
82940;SDS011;72715;48.396;-4.472;2024-02-21T06:25:21;31.35;;;7.75;;
82940;SDS011;72715;48.396;-4.472;2024-02-21T06:27:46;10.57;;;3.47;;
82940;SDS011;72715;48.396;-4.472;2024-02-21T06:30:12;13.80;;;4.70;;
82940;SDS011;72715;48.396;-4.472;2024-02-21T06:32:37;14.93;;;4.60;;
82940;SDS011;72715;48.396;-4.472;2024-02-21T06:35:03;11.13;;;4.00;;
82940;SDS011;72715;48.396;-4.472;2024-02-21T06:37:29;28.27;;;3.85;;
82940;SDS011;72715;48.396;-4.472;2024-02-21T06:39:55;33.75;;;7.70;;
82940;SDS011;72715;48.396;-4.472;2024-02-21T06:42:20;6.22;;;2.72;;
82940;SDS011;72715;48.396;-4.472;2024-02-21T06:44:46;12.55;;;5.72;;
82940;SDS011;72715;48.396;-4.472;2024-02-21T06:47:12;25.25;;;4.45;;
82940;SDS011;72715;48.396;-4.472;2024-02-21T06:49:37;20.35;;;6.65;;
82940;SDS011;72715;48.396;-4.472;2024-02-21T06:52:04;17.52;;;6.35;;
82940;SDS011;72715;48.396;-4.472;2024-02-21T06:54:30;19.02;;;5.20;;
82940;SDS011;72715;48.396;-4.472;2024-02-21T06:56:55;7.53;;;2.35;;
82940;SDS011;72715;48.396;-4.472;2024-02-21T06:59:21;48.28;;;7.43;;
82940;SDS011;72715;48.396;-4.472;2024-02-21T07:01:49;33.58;;;6.18;;
82940;SDS011;72715;48.396;-4.472;2024-02-21T07:04:18;33.58;;;6.93;;
82940;SDS011;72715;48.396;-4.472;2024-02-21T07:06:43;17.30;;;4.05;;
82940;SDS011;72715;48.396;-4.472;2024-02-21T07:09:08;17.35;;;5.80;;
82940;SDS011;72715;48.396;-4.472;2024-02-21T07:11:34;37.65;;;5.80;;
82940;SDS011;72715;48.396;-4.472;2024-02-21T07:13:59;45.53;;;5.90;;
82940;SDS011;72715;48.396;-4.472;2024-02-21T07:16:24;15.63;;;4.18;;
82940;SDS011;72715;48.396;-4.472;2024-02-21T07:18:51;23.45;;;5.22;;
82940;SDS011;72715;48.396;-4.472;2024-02-21T07:21:17;19.33;;;3.90;;
82940;SDS011;72715;48.396;-4.472;2024-02-21T07:23:42;30.90;;;5.60;;
82940;SDS011;72715;48.396;-4.472;2024-02-21T07:26:07;18.52;;;5.43;;
82940;SDS011;72715;48.396;-4.472;2024-02-21T07:28:33;15.13;;;4.65;;
82940;SDS011;72715;48.396;-4.472;2024-02-21T07:30:59;20.23;;;4.25;;
82940;SDS011;72715;48.396;-4.472;2024-02-21T07:33:24;38.22;;;4.85;;
82940;SDS011;72715;48.396;-4.472;2024-02-21T07:35:50;26.70;;;5.85;;
82940;SDS011;72715;48.396;-4.472;2024-02-21T07:38:15;25.15;;;5.15;;
82940;SDS011;72715;48.396;-4.472;2024-02-21T07:40:44;36.83;;;6.28;;
82940;SDS011;72715;48.396;-4.472;2024-02-21T07:43:10;13.13;;;3.85;;
82940;SDS011;72715;48.396;-4.472;2024-02-21T07:45:35;25.27;;;5.78;;
82940;SDS011;72715;48.396;-4.472;2024-02-21T07:48:00;13.48;;;3.75;;
82940;SDS011;72715;48.396;-4.472;2024-02-21T07:50:26;19.65;;;5.20;;
82940;SDS011;72715;48.396;-4.472;2024-02-21T07:52:51;17.83;;;5.97;;
82940;SDS011;72715;48.396;-4.472;2024-02-21T07:55:17;11.70;;;4.45;;
82940;SDS011;72715;48.396;-4.472;2024-02-21T07:57:42;34.03;;;7.80;;
82940;SDS011;72715;48.396;-4.472;2024-02-21T08:00:08;27.15;;;6.18;;
82940;SDS011;72715;48.396;-4.472;2024-02-21T08:02:35;25.83;;;5.20;;
82940;SDS011;72715;48.396;-4.472;2024-02-21T08:05:00;36.05;;;6.50;;
82940;SDS011;72715;48.396;-4.472;2024-02-21T08:07:26;44.47;;;8.63;;
82940;SDS011;72715;48.396;-4.472;2024-02-21T08:09:54;23.52;;;5.82;;
82940;SDS011;72715;48.396;-4.472;2024-02-21T08:12:19;14.65;;;5.82;;
82940;SDS011;72715;48.396;-4.472;2024-02-21T08:14:44;17.95;;;5.47;;
82940;SDS011;72715;48.396;-4.472;2024-02-21T08:17:10;51.30;;;6.63;;
82940;SDS011;72715;48.396;-4.472;2024-02-21T08:19:35;45.08;;;7.35;;
82940;SDS011;72715;48.396;-4.472;2024-02-21T08:22:00;44.67;;;8.32;;
82940;SDS011;72715;48.396;-4.472;2024-02-21T08:24:26;29.92;;;6.05;;
82940;SDS011;72715;48.396;-4.472;2024-02-21T08:26:51;11.80;;;4.38;;
82940;SDS011;72715;48.396;-4.472;2024-02-21T08:29:16;18.23;;;4.30;;
82940;SDS011;72715;48.396;-4.472;2024-02-21T08:31:42;9.20;;;3.85;;
82940;SDS011;72715;48.396;-4.472;2024-02-21T08:34:07;14.40;;;3.65;;
82940;SDS011;72715;48.396;-4.472;2024-02-21T08:36:33;25.13;;;7.75;;
82940;SDS011;72715;48.396;-4.472;2024-02-21T08:38:59;30.73;;;5.78;;
82940;SDS011;72715;48.396;-4.472;2024-02-21T08:41:25;27.92;;;7.03;;
82940;SDS011;72715;48.396;-4.472;2024-02-21T08:43:53;57.78;;;8.10;;
82940;SDS011;72715;48.396;-4.472;2024-02-21T08:46:28;20.95;;;5.38;;
82940;SDS011;72715;48.396;-4.472;2024-02-21T08:48:53;20.80;;;5.72;;
82940;SDS011;72715;48.396;-4.472;2024-02-21T08:51:19;22.65;;;5.50;;
82940;SDS011;72715;48.396;-4.472;2024-02-21T08:53:45;6.75;;;4.05;;
82940;SDS011;72715;48.396;-4.472;2024-02-21T08:56:10;24.48;;;5.15;;
82940;SDS011;72715;48.396;-4.472;2024-02-21T08:58:36;16.58;;;4.72;;
82940;SDS011;72715;48.396;-4.472;2024-02-21T09:01:02;24.02;;;5.22;;
82940;SDS011;72715;48.396;-4.472;2024-02-21T09:03:28;15.43;;;4.43;;
82940;SDS011;72715;48.396;-4.472;2024-02-21T09:05:55;10.75;;;3.97;;
82940;SDS011;72715;48.396;-4.472;2024-02-21T09:08:21;16.00;;;4.53;;
82940;SDS011;72715;48.396;-4.472;2024-02-21T09:10:47;22.35;;;5.25;;
82940;SDS011;72715;48.396;-4.472;2024-02-21T09:13:12;39.20;;;7.35;;
82940;SDS011;72715;48.396;-4.472;2024-02-21T09:15:37;42.60;;;9.93;;
82940;SDS011;72715;48.396;-4.472;2024-02-21T09:18:03;33.50;;;9.48;;
82940;SDS011;72715;48.396;-4.472;2024-02-21T09:20:28;24.38;;;8.40;;
82940;SDS011;72715;48.396;-4.472;2024-02-21T09:22:54;59.03;;;10.45;;
82940;SDS011;72715;48.396;-4.472;2024-02-21T09:25:19;47.38;;;8.85;;
82940;SDS011;72715;48.396;-4.472;2024-02-21T09:27:45;47.25;;;8.45;;
82940;SDS011;72715;48.396;-4.472;2024-02-21T09:30:10;33.53;;;6.45;;
82940;SDS011;72715;48.396;-4.472;2024-02-21T09:32:36;57.45;;;12.85;;
82940;SDS011;72715;48.396;-4.472;2024-02-21T09:35:02;43.08;;;10.05;;
82940;SDS011;72715;48.396;-4.472;2024-02-21T09:37:28;31.63;;;9.35;;
82940;SDS011;72715;48.396;-4.472;2024-02-21T09:39:53;70.68;;;10.88;;
82940;SDS011;72715;48.396;-4.472;2024-02-21T09:42:20;41.15;;;8.98;;
82940;SDS011;72715;48.396;-4.472;2024-02-21T09:44:46;70.72;;;11.35;;
82940;SDS011;72715;48.396;-4.472;2024-02-21T09:47:15;42.80;;;8.45;;
82940;SDS011;72715;48.396;-4.472;2024-02-21T09:49:47;44.20;;;9.55;;
82940;SDS011;72715;48.396;-4.472;2024-02-21T09:52:13;34.90;;;9.57;;
82940;SDS011;72715;48.396;-4.472;2024-02-21T09:54:40;58.35;;;13.40;;
82940;SDS011;72715;48.396;-4.472;2024-02-21T09:57:10;27.73;;;8.43;;
82940;SDS011;72715;48.396;-4.472;2024-02-21T09:59:37;69.03;;;10.95;;
82940;SDS011;72715;48.396;-4.472;2024-02-21T10:02:02;60.95;;;13.25;;
82940;SDS011;72715;48.396;-4.472;2024-02-21T10:04:28;31.55;;;11.30;;
82940;SDS011;72715;48.396;-4.472;2024-02-21T10:06:53;36.70;;;8.77;;
82940;SDS011;72715;48.396;-4.472;2024-02-21T10:09:22;43.72;;;10.57;;
82940;SDS011;72715;48.396;-4.472;2024-02-21T10:11:54;40.72;;;10.48;;
82940;SDS011;72715;48.396;-4.472;2024-02-21T10:14:20;40.00;;;10.27;;
82940;SDS011;72715;48.396;-4.472;2024-02-21T10:16:56;29.13;;;10.20;;
82940;SDS011;72715;48.396;-4.472;2024-02-21T10:19:21;50.70;;;13.23;;
82940;SDS011;72715;48.396;-4.472;2024-02-21T10:22:07;50.17;;;13.23;;
82940;SDS011;72715;48.396;-4.472;2024-02-21T10:24:33;66.38;;;13.00;;
82940;SDS011;72715;48.396;-4.472;2024-02-21T10:27:02;37.58;;;10.57;;
82940;SDS011;72715;48.396;-4.472;2024-02-21T10:29:31;51.15;;;12.25;;
82940;SDS011;72715;48.396;-4.472;2024-02-21T10:32:30;38.50;;;10.57;;
82940;SDS011;72715;48.396;-4.472;2024-02-21T10:34:50;47.17;;;10.20;;
82940;SDS011;72715;48.396;-4.472;2024-02-21T10:37:17;54.58;;;13.10;;
82940;SDS011;72715;48.396;-4.472;2024-02-21T10:39:42;49.05;;;12.18;;
82940;SDS011;72715;48.396;-4.472;2024-02-21T10:42:12;47.45;;;12.75;;
82940;SDS011;72715;48.396;-4.472;2024-02-21T10:44:38;47.13;;;12.00;;
82940;SDS011;72715;48.396;-4.472;2024-02-21T10:47:10;54.00;;;12.27;;
82940;SDS011;72715;48.396;-4.472;2024-02-21T10:49:39;39.53;;;11.52;;
82940;SDS011;72715;48.396;-4.472;2024-02-21T10:55:10;35.00;;;10.05;;
82940;SDS011;72715;48.396;-4.472;2024-02-21T10:57:37;52.55;;;11.93;;
82940;SDS011;72715;48.396;-4.472;2024-02-21T11:00:03;49.10;;;11.95;;
82940;SDS011;72715;48.396;-4.472;2024-02-21T11:02:33;35.35;;;9.23;;
82940;SDS011;72715;48.396;-4.472;2024-02-21T11:04:59;35.08;;;10.52;;
82940;SDS011;72715;48.396;-4.472;2024-02-21T11:07:25;41.33;;;10.23;;
82940;SDS011;72715;48.396;-4.472;2024-02-21T11:09:51;65.97;;;11.85;;
82940;SDS011;72715;48.396;-4.472;2024-02-21T11:12:20;46.88;;;9.85;;
82940;SDS011;72715;48.396;-4.472;2024-02-21T11:14:46;38.53;;;8.77;;
82940;SDS011;72715;48.396;-4.472;2024-02-21T11:17:18;54.63;;;10.23;;
82940;SDS011;72715;48.396;-4.472;2024-02-21T11:19:46;34.00;;;7.18;;
82940;SDS011;72715;48.396;-4.472;2024-02-21T11:22:15;20.40;;;5.00;;
82940;SDS011;72715;48.396;-4.472;2024-02-21T11:24:41;33.08;;;8.40;;
82940;SDS011;72715;48.396;-4.472;2024-02-21T11:29:49;62.05;;;9.50;;
82940;SDS011;72715;48.396;-4.472;2024-02-21T11:32:20;30.80;;;8.45;;
82940;SDS011;72715;48.396;-4.472;2024-02-21T11:37:20;56.03;;;9.98;;
82940;SDS011;72715;48.396;-4.472;2024-02-21T11:39:45;70.13;;;10.68;;
82940;SDS011;72715;48.396;-4.472;2024-02-21T11:42:10;26.38;;;8.88;;
82940;SDS011;72715;48.396;-4.472;2024-02-21T11:44:37;33.20;;;8.13;;
82940;SDS011;72715;48.396;-4.472;2024-02-21T11:47:03;23.58;;;5.90;;
82940;SDS011;72715;48.396;-4.472;2024-02-21T11:49:29;29.05;;;7.75;;
82940;SDS011;72715;48.396;-4.472;2024-02-21T11:51:58;24.67;;;7.28;;
82940;SDS011;72715;48.396;-4.472;2024-02-21T11:54:29;59.53;;;10.77;;
82940;SDS011;72715;48.396;-4.472;2024-02-21T11:56:57;37.30;;;8.50;;
82940;SDS011;72715;48.396;-4.472;2024-02-21T11:59:23;51.30;;;10.65;;
82940;SDS011;72715;48.396;-4.472;2024-02-21T12:01:48;47.13;;;11.07;;
82940;SDS011;72715;48.396;-4.472;2024-02-21T12:04:15;23.77;;;7.13;;
82940;SDS011;72715;48.396;-4.472;2024-02-21T12:06:42;39.08;;;8.07;;
82940;SDS011;72715;48.396;-4.472;2024-02-21T12:09:08;34.72;;;8.95;;
82940;SDS011;72715;48.396;-4.472;2024-02-21T12:11:34;39.72;;;9.10;;
82940;SDS011;72715;48.396;-4.472;2024-02-21T12:14:03;82.97;;;14.98;;
82940;SDS011;72715;48.396;-4.472;2024-02-21T12:16:30;55.17;;;11.27;;
82940;SDS011;72715;48.396;-4.472;2024-02-21T12:18:59;35.10;;;9.07;;
82940;SDS011;72715;48.396;-4.472;2024-02-21T12:21:25;45.72;;;12.27;;
82940;SDS011;72715;48.396;-4.472;2024-02-21T12:24:11;42.15;;;10.25;;
82940;SDS011;72715;48.396;-4.472;2024-02-21T12:26:57;55.85;;;11.00;;
82940;SDS011;72715;48.396;-4.472;2024-02-21T12:29:23;85.63;;;13.13;;
82940;SDS011;72715;48.396;-4.472;2024-02-21T12:31:53;35.58;;;7.90;;
82940;SDS011;72715;48.396;-4.472;2024-02-21T12:34:19;31.27;;;8.35;;
82940;SDS011;72715;48.396;-4.472;2024-02-21T12:36:47;37.22;;;9.73;;
82940;SDS011;72715;48.396;-4.472;2024-02-21T12:39:12;55.90;;;14.07;;
82940;SDS011;72715;48.396;-4.472;2024-02-21T12:41:38;57.60;;;12.05;;
82940;SDS011;72715;48.396;-4.472;2024-02-21T12:44:05;51.17;;;11.30;;
82940;SDS011;72715;48.396;-4.472;2024-02-21T12:46:32;81.55;;;10.88;;
82940;SDS011;72715;48.396;-4.472;2024-02-21T12:48:58;31.95;;;7.63;;
82940;SDS011;72715;48.396;-4.472;2024-02-21T12:51:23;32.45;;;7.38;;
82940;SDS011;72715;48.396;-4.472;2024-02-21T12:53:49;47.10;;;8.02;;
82940;SDS011;72715;48.396;-4.472;2024-02-21T12:56:15;57.92;;;10.15;;
82940;SDS011;72715;48.396;-4.472;2024-02-21T12:58:40;18.92;;;5.72;;
82940;SDS011;72715;48.396;-4.472;2024-02-21T13:01:06;30.38;;;7.20;;
82940;SDS011;72715;48.396;-4.472;2024-02-21T13:03:31;32.33;;;6.75;;
82940;SDS011;72715;48.396;-4.472;2024-02-21T13:05:56;26.65;;;6.97;;
82940;SDS011;72715;48.396;-4.472;2024-02-21T13:08:22;44.00;;;9.57;;
82940;SDS011;72715;48.396;-4.472;2024-02-21T13:10:48;35.88;;;8.98;;
82940;SDS011;72715;48.396;-4.472;2024-02-21T13:13:14;39.85;;;9.52;;
82940;SDS011;72715;48.396;-4.472;2024-02-21T13:15:39;41.35;;;6.82;;
82940;SDS011;72715;48.396;-4.472;2024-02-21T13:18:08;40.40;;;7.75;;
82940;SDS011;72715;48.396;-4.472;2024-02-21T13:20:33;59.60;;;9.05;;
82940;SDS011;72715;48.396;-4.472;2024-02-21T13:22:59;28.88;;;7.57;;
82940;SDS011;72715;48.396;-4.472;2024-02-21T13:25:24;41.35;;;8.98;;
82940;SDS011;72715;48.396;-4.472;2024-02-21T13:27:50;33.75;;;8.90;;
82940;SDS011;72715;48.396;-4.472;2024-02-21T13:30:15;35.15;;;7.05;;
82940;SDS011;72715;48.396;-4.472;2024-02-21T13:32:41;19.48;;;6.88;;
82940;SDS011;72715;48.396;-4.472;2024-02-21T13:35:07;35.47;;;7.40;;
82940;SDS011;72715;48.396;-4.472;2024-02-21T13:37:33;13.43;;;5.18;;
82940;SDS011;72715;48.396;-4.472;2024-02-21T13:39:58;23.88;;;7.43;;
82940;SDS011;72715;48.396;-4.472;2024-02-21T13:42:24;16.25;;;5.00;;
82940;SDS011;72715;48.396;-4.472;2024-02-21T13:44:52;31.95;;;8.27;;
82940;SDS011;72715;48.396;-4.472;2024-02-21T13:47:17;31.75;;;5.95;;
82940;SDS011;72715;48.396;-4.472;2024-02-21T13:49:43;28.15;;;8.10;;
82940;SDS011;72715;48.396;-4.472;2024-02-21T13:52:08;25.67;;;7.07;;
82940;SDS011;72715;48.396;-4.472;2024-02-21T13:54:34;31.48;;;7.50;;
82940;SDS011;72715;48.396;-4.472;2024-02-21T13:56:59;33.08;;;7.05;;
82940;SDS011;72715;48.396;-4.472;2024-02-21T13:59:26;20.80;;;5.95;;
82940;SDS011;72715;48.396;-4.472;2024-02-21T14:01:51;26.00;;;8.02;;
82940;SDS011;72715;48.396;-4.472;2024-02-21T14:04:17;16.80;;;5.28;;
82940;SDS011;72715;48.396;-4.472;2024-02-21T14:06:42;43.50;;;8.88;;
82940;SDS011;72715;48.396;-4.472;2024-02-21T14:09:11;22.60;;;5.47;;
82940;SDS011;72715;48.396;-4.472;2024-02-21T14:11:37;28.02;;;5.97;;
82940;SDS011;72715;48.396;-4.472;2024-02-21T14:14:04;28.90;;;6.97;;
82940;SDS011;72715;48.396;-4.472;2024-02-21T14:16:30;40.25;;;7.82;;
82940;SDS011;72715;48.396;-4.472;2024-02-21T14:18:55;18.80;;;5.05;;
82940;SDS011;72715;48.396;-4.472;2024-02-21T14:21:20;26.88;;;6.90;;
82940;SDS011;72715;48.396;-4.472;2024-02-21T14:23:46;24.15;;;4.43;;
82940;SDS011;72715;48.396;-4.472;2024-02-21T14:26:11;13.63;;;3.63;;
82940;SDS011;72715;48.396;-4.472;2024-02-21T14:28:37;16.48;;;4.22;;